Time,TemperatureF,DewpointF,PressureIn,WindDirection,WindDirectionDegrees,WindSpeedMPH,WindSpeedGustMPH,Humidity,HourlyPrecipIn,Conditions,Clouds,dailyrainin,SoftwareType,DateUTC
2013-02-08 00:51:00,51.0,-4.0,29.81,NNE,14,5.0,17.0,10,0.15,,,0.15,,2013-02-08 06:51:00,
2013-02-08 01:01:00,50.0,-4.0,29.81,NNE,21,4.0,17.0,10,0.03,,,0.03,,2013-02-08 07:01:00,
2013-02-08 01:11:00,50.0,-4.0,29.83,NNE,28,7.0,17.0,10,0.03,,,0.03,,2013-02-08 07:11:00,
2013-02-08 01:21:00,50.0,-4.0,29.83,NNE,28,7.0,17.0,10,0.03,,,0.03,,2013-02-08 07:21:00,
2013-02-08 01:32:00,48.0,48.0,29.83,NW,305,5.0,16.0,99,0.06,,,0.06,,2013-02-08 07:32:00,
2013-02-08 01:42:00,48.0,47.0,29.85,NW,312,7.0,16.0,98,0.06,,,0.06,,2013-02-08 07:42:00,
2013-02-08 01:51:00,48.0,47.0,29.85,NW,312,7.0,16.0,98,0.06,,,0.06,,2013-02-08 07:51:00,
2013-02-08 02:01:00,47.0,46.0,29.85,North,359,8.0,21.0,98,0.06,,,0.09,,2013-02-08 08:01:00,
2013-02-08 02:11:00,47.0,46.0,29.85,North,356,17.0,21.0,98,0.06,,,0.09,,2013-02-08 08:11:00,
2013-02-08 02:21:00,47.0,46.0,29.85,North,356,17.0,21.0,98,0.06,,,0.09,,2013-02-08 08:21:00,
2013-02-08 02:32:00,47.0,46.0,29.85,NNW,332,5.0,17.0,96,0.05,,,0.11,,2013-02-08 08:32:00,
2013-02-08 02:41:00,47.0,46.0,29.85,NNW,332,5.0,17.0,96,0.05,,,0.11,,2013-02-08 08:41:00,
2013-02-08 02:52:00,46.0,45.0,29.87,NNE,13,2.0,17.0,96,0.05,,,0.11,,2013-02-08 08:52:00,
2013-02-08 03:03:00,46.0,44.0,29.87,North,352,5.0,17.0,94,0.04,,,0.13,,2013-02-08 09:03:00,
2013-02-08 03:11:00,46.0,44.0,29.87,North,352,5.0,17.0,94,0.04,,,0.13,,2013-02-08 09:11:00,
2013-02-08 03:21:00,45.0,43.0,29.87,NE,49,1.0,17.0,93,0.04,,,0.13,,2013-02-08 09:21:00,
2013-02-08 03:32:00,45.0,43.0,29.88,North,359,7.0,19.0,92,0.03,,,0.14,,2013-02-08 09:32:00,
2013-02-08 03:42:00,45.0,43.0,29.88,North,359,7.0,19.0,92,0.03,,,0.14,,2013-02-08 09:42:00,
2013-02-08 03:52:00,44.0,42.0,29.88,NNW,342,8.0,19.0,93,0.03,,,0.14,,2013-02-08 09:52:00,
2013-02-08 04:01:00,44.0,42.0,29.91,NW,308,10.0,17.0,91,0.01,,,0.14,,2013-02-08 10:01:00,
2013-02-08 04:11:00,44.0,42.0,29.91,NW,308,10.0,17.0,91,0.01,,,0.14,,2013-02-08 10:11:00,
2013-02-08 04:22:00,43.0,41.0,29.91,North,353,6.0,17.0,91,0.01,,,0.14,,2013-02-08 10:22:00,
2013-02-08 04:31:00,43.0,41.0,29.93,NNW,329,6.0,17.0,92,0.02,,,0.16,,2013-02-08 10:31:00,
2013-02-08 04:41:00,43.0,41.0,29.93,NNW,329,6.0,17.0,92,0.02,,,0.16,,2013-02-08 10:41:00,
2013-02-08 04:51:00,43.0,41.0,29.93,North,8,7.0,17.0,92,0.02,,,0.16,,2013-02-08 10:51:00,
2013-02-08 05:01:00,42.0,40.0,29.93,North,352,4.0,14.0,92,0.02,,,0.16,,2013-02-08 11:01:00,
2013-02-08 05:11:00,42.0,40.0,29.93,North,352,4.0,14.0,92,0.02,,,0.16,,2013-02-08 11:11:00,
2013-02-08 05:21:00,42.0,40.0,29.95,NNE,14,2.0,14.0,93,0.02,,,0.16,,2013-02-08 11:21:00,
2013-02-08 05:32:00,42.0,40.0,29.95,NNE,16,3.0,18.0,93,0.01,,,0.17,,2013-02-08 11:32:00,
2013-02-08 05:42:00,42.0,40.0,29.95,NNE,16,3.0,18.0,93,0.01,,,0.17,,2013-02-08 11:42:00,
2013-02-08 05:52:00,42.0,40.0,29.97,North,359,2.0,18.0,92,0.01,,,0.17,,2013-02-08 11:52:00,
2013-02-08 06:02:00,41.0,38.0,29.98,NE,42,5.0,13.0,89,0.02,,,0.18,,2013-02-08 12:02:00,
2013-02-08 06:11:00,41.0,38.0,29.98,NE,42,5.0,13.0,89,0.02,,,0.18,,2013-02-08 12:11:00,
2013-02-08 06:22:00,41.0,38.0,29.99,NNE,21,2.0,13.0,90,0.02,,,0.18,,2013-02-08 12:22:00,
2013-02-08 06:33:00,41.0,39.0,29.99,NNE,31,3.0,17.0,92,0.02,,,0.19,,2013-02-08 12:33:00,
2013-02-08 06:42:00,41.0,39.0,29.99,NNE,31,3.0,17.0,92,0.02,,,0.19,,2013-02-08 12:42:00,
2013-02-08 06:52:00,41.0,38.0,30.00,NNE,30,4.0,17.0,89,0.02,,,0.19,,2013-02-08 12:52:00,
2013-02-08 07:01:00,40.0,36.0,30.01,North,359,6.0,25.0,87,0.02,,,0.20,,2013-02-08 13:01:00,
2013-02-08 07:11:00,40.0,36.0,30.01,North,359,6.0,25.0,87,0.02,,,0.20,,2013-02-08 13:11:00,
2013-02-08 07:22:00,40.0,36.0,30.02,NE,40,6.0,25.0,86,0.02,,,0.20,,2013-02-08 13:22:00,
2013-02-08 07:32:00,40.0,36.0,30.03,North,6,5.0,19.0,87,0.01,,,0.20,,2013-02-08 13:32:00,
2013-02-08 07:42:00,40.0,36.0,30.03,North,6,5.0,19.0,87,0.01,,,0.20,,2013-02-08 13:42:00,
2013-02-08 07:51:00,40.0,36.0,30.05,North,4,0.0,19.0,86,0.01,,,0.20,,2013-02-08 13:51:00,
2013-02-08 08:02:00,40.0,36.0,30.07,NNE,14,10.0,16.0,86,0.01,,,0.21,,2013-02-08 14:02:00,
2013-02-08 08:11:00,40.0,36.0,30.07,NNE,14,10.0,16.0,86,0.01,,,0.21,,2013-02-08 14:11:00,
2013-02-08 08:21:00,40.0,36.0,30.08,North,352,3.0,16.0,86,0.01,,,0.21,,2013-02-08 14:21:00,
2013-02-08 08:32:00,40.0,36.0,30.08,North,357,9.0,16.0,86,0.01,,,0.21,,2013-02-08 14:32:00,
2013-02-08 08:42:00,40.0,36.0,30.08,North,357,9.0,16.0,86,0.01,,,0.21,,2013-02-08 14:42:00,
2013-02-08 08:52:00,39.0,35.0,30.08,NE,42,1.0,16.0,84,0.01,,,0.21,,2013-02-08 14:52:00,
2013-02-08 09:02:00,39.0,35.0,30.10,NW,316,3.0,17.0,84,0.01,,,0.22,,2013-02-08 15:02:00,
2013-02-08 09:11:00,39.0,35.0,30.10,NW,316,3.0,17.0,84,0.01,,,0.22,,2013-02-08 15:11:00,
2013-02-08 09:22:00,39.0,35.0,30.10,NE,38,5.0,17.0,84,0.01,,,0.22,,2013-02-08 15:22:00,
2013-02-08 09:32:00,39.0,35.0,30.11,NE,54,1.0,17.0,85,0.01,,,0.22,,2013-02-08 15:32:00,
2013-02-08 09:42:00,39.0,35.0,30.11,NE,54,1.0,17.0,85,0.01,,,0.22,,2013-02-08 15:42:00,
2013-02-08 09:52:00,39.0,35.0,30.12,North,1,8.0,17.0,84,0.01,,,0.22,,2013-02-08 15:52:00,
2013-02-08 10:01:00,39.0,35.0,30.12,NNE,28,3.0,17.0,85,0.01,,,0.23,,2013-02-08 16:01:00,
2013-02-08 10:11:00,39.0,35.0,30.12,NNE,28,3.0,17.0,85,0.01,,,0.23,,2013-02-08 16:11:00,
2013-02-08 10:21:00,39.0,34.0,30.13,NNW,347,7.0,17.0,82,0.01,,,0.23,,2013-02-08 16:21:00,
2013-02-08 10:32:00,39.0,35.0,30.14,NNW,332,5.0,17.0,84,0.01,,,0.23,,2013-02-08 16:32:00,
2013-02-08 10:42:00,39.0,35.0,30.14,NNW,332,5.0,17.0,84,0.01,,,0.23,,2013-02-08 16:42:00,
2013-02-08 10:51:00,39.0,35.0,30.15,North,0,5.0,17.0,84,0.01,,,0.23,,2013-02-08 16:51:00,
2013-02-08 11:03:00,39.0,34.0,30.16,North,356,7.0,18.0,82,0.01,,,0.24,,2013-02-08 17:03:00,
2013-02-08 11:12:00,39.0,34.0,30.16,North,359,7.0,18.0,82,0.01,,,0.24,,2013-02-08 17:12:00,
2013-02-08 11:22:00,39.0,34.0,30.16,North,359,7.0,18.0,82,0.01,,,0.24,,2013-02-08 17:22:00,
2013-02-08 11:32:00,39.0,34.0,30.16,North,359,6.0,14.0,82,0.01,,,0.24,,2013-02-08 17:32:00,
2013-02-08 11:42:00,39.0,34.0,30.16,North,359,6.0,14.0,82,0.01,,,0.24,,2013-02-08 17:42:00,
2013-02-08 11:52:00,39.0,33.0,30.16,North,0,11.0,14.0,80,0.01,,,0.24,,2013-02-08 17:52:00,
2013-02-08 12:02:00,39.0,34.0,30.17,North,349,6.0,17.0,81,0.00,,,0.24,,2013-02-08 18:02:00,
2013-02-08 12:12:00,39.0,34.0,30.17,North,349,6.0,17.0,81,0.00,,,0.24,,2013-02-08 18:12:00,
2013-02-08 12:24:00,40.0,34.0,30.17,NNW,340,7.0,17.0,79,0.00,,,0.24,,2013-02-08 18:24:00,
2013-02-08 12:34:00,40.0,33.0,30.17,NNW,335,5.0,18.0,76,0.01,,,0.25,,2013-02-08 18:34:00,
2013-02-08 12:43:00,40.0,33.0,30.17,NNW,335,5.0,18.0,76,0.01,,,0.25,,2013-02-08 18:43:00,
2013-02-08 12:52:00,40.0,33.0,30.17,NNE,21,6.0,18.0,76,0.01,,,0.25,,2013-02-08 18:52:00,
2013-02-08 13:02:00,39.0,32.0,30.17,NW,325,2.0,16.0,77,0.01,,,0.25,,2013-02-08 19:02:00,
2013-02-08 13:11:00,39.0,32.0,30.17,NW,325,2.0,16.0,77,0.01,,,0.25,,2013-02-08 19:11:00,
2013-02-08 13:22:00,40.0,32.0,30.17,North,354,7.0,16.0,74,0.01,,,0.25,,2013-02-08 19:22:00,
2013-02-08 13:32:00,40.0,33.0,30.17,North,354,6.0,13.0,75,0.00,,,0.25,,2013-02-08 19:32:00,
2013-02-08 13:42:00,40.0,33.0,30.17,North,354,6.0,13.0,75,0.00,,,0.25,,2013-02-08 19:42:00,
2013-02-08 13:52:00,40.0,32.0,30.16,NNW,339,5.0,13.0,72,0.00,,,0.25,,2013-02-08 19:52:00,
2013-02-08 14:02:00,41.0,32.0,30.16,NE,56,11.0,12.0,71,0.01,,,0.26,,2013-02-08 20:02:00,
2013-02-08 14:11:00,41.0,32.0,30.16,NE,56,11.0,12.0,71,0.01,,,0.26,,2013-02-08 20:11:00,
2013-02-08 14:21:00,41.0,33.0,30.16,North,10,1.0,12.0,72,0.01,,,0.26,,2013-02-08 20:21:00,
2013-02-08 14:32:00,41.0,33.0,30.16,North,1,1.0,12.0,72,0.01,,,0.26,,2013-02-08 20:32:00,
2013-02-08 14:42:00,41.0,33.0,30.16,North,1,1.0,12.0,72,0.01,,,0.26,,2013-02-08 20:42:00,
2013-02-08 14:52:00,42.0,33.0,30.17,North,352,5.0,12.0,71,0.01,,,0.26,,2013-02-08 20:52:00,
2013-02-08 15:02:00,42.0,33.0,30.16,WNW,284,2.0,13.0,69,0.00,,,0.26,,2013-02-08 21:02:00,
2013-02-08 15:11:00,42.0,33.0,30.16,WNW,284,2.0,13.0,69,0.00,,,0.26,,2013-02-08 21:11:00,
2013-02-08 15:22:00,42.0,32.0,30.17,NE,34,0.0,13.0,68,0.00,,,0.26,,2013-02-08 21:22:00,
2013-02-08 15:32:00,42.0,32.0,30.17,North,357,6.0,13.0,67,0.00,,,0.26,,2013-02-08 21:32:00,
2013-02-08 15:42:00,42.0,32.0,30.17,North,357,6.0,13.0,67,0.00,,,0.26,,2013-02-08 21:42:00,
2013-02-08 15:52:00,42.0,31.0,30.17,North,356,5.0,13.0,66,0.00,,,0.26,,2013-02-08 21:52:00,
2013-02-08 16:02:00,41.0,31.0,30.18,NE,38,1.0,11.0,67,0.00,,,0.26,,2013-02-08 22:02:00,
2013-02-08 16:11:00,41.0,31.0,30.18,NE,38,1.0,11.0,67,0.00,,,0.26,,2013-02-08 22:11:00,
2013-02-08 16:21:00,41.0,31.0,30.18,NE,40,5.0,11.0,67,0.00,,,0.26,,2013-02-08 22:21:00,
2013-02-08 16:32:00,40.0,30.0,30.19,NE,42,4.0,14.0,68,0.01,,,0.27,,2013-02-08 22:32:00,
2013-02-08 16:42:00,40.0,30.0,30.19,NE,42,4.0,14.0,68,0.01,,,0.27,,2013-02-08 22:42:00,
2013-02-08 16:51:00,40.0,31.0,30.19,NNE,27,1.0,14.0,69,0.01,,,0.27,,2013-02-08 22:51:00,
2013-02-08 17:01:00,40.0,31.0,30.19,NNE,27,1.0,14.0,69,0.01,,,0.27,,2013-02-08 23:01:00,
2013-02-08 17:11:00,40.0,31.0,30.19,NNE,27,1.0,14.0,69,0.01,,,0.27,,2013-02-08 23:11:00,
2013-02-08 17:21:00,39.0,29.0,30.20,NE,52,7.0,12.0,67,0.01,,,0.27,,2013-02-08 23:21:00,
2013-02-08 17:32:00,38.0,29.0,30.21,ENE,61,6.0,14.0,70,0.15,,,0.42,,2013-02-08 23:32:00,
2013-02-08 17:42:00,38.0,29.0,30.21,ENE,61,6.0,14.0,70,0.15,,,0.42,,2013-02-08 23:42:00,
2013-02-08 17:52:00,38.0,30.0,30.22,NE,56,1.0,14.0,73,0.15,,,0.42,,2013-02-08 23:52:00,
2013-02-08 18:02:00,38.0,30.0,30.23,North,359,2.0,13.0,73,0.15,,,0.42,,2013-02-09 00:02:00,
2013-02-08 18:11:00,38.0,30.0,30.23,North,359,2.0,13.0,73,0.15,,,0.42,,2013-02-09 00:11:00,
2013-02-08 18:21:00,37.0,29.0,30.25,NNW,347,3.0,13.0,74,0.15,,,0.42,,2013-02-09 00:21:00,
2013-02-08 18:32:00,37.0,30.0,30.26,NE,48,7.0,11.0,75,0.00,,,0.42,,2013-02-09 00:32:00,
2013-02-08 18:42:00,37.0,30.0,30.26,NE,48,7.0,11.0,75,0.00,,,0.42,,2013-02-09 00:42:00,
2013-02-08 18:52:00,36.0,29.0,30.26,NNE,32,8.0,11.0,75,0.00,,,0.42,,2013-02-09 00:52:00,
2013-02-08 19:01:00,36.0,29.0,30.27,ENE,71,7.0,13.0,74,0.00,,,0.42,,2013-02-09 01:01:00,
2013-02-08 19:11:00,36.0,29.0,30.27,ENE,71,7.0,13.0,74,0.00,,,0.42,,2013-02-09 01:11:00,
2013-02-08 19:21:00,36.0,29.0,30.27,NE,51,5.0,13.0,74,0.00,,,0.42,,2013-02-09 01:21:00,
2013-02-08 19:32:00,36.0,29.0,30.25,ENE,61,3.0,12.0,75,0.00,,,0.42,,2013-02-09 01:32:00,
2013-02-08 19:42:00,36.0,29.0,30.25,ENE,61,3.0,12.0,75,0.00,,,0.42,,2013-02-09 01:42:00,
2013-02-08 19:52:00,36.0,29.0,30.25,ENE,61,3.0,12.0,75,0.00,,,0.42,,2013-02-09 01:52:00,
2013-02-08 20:01:00,35.0,29.0,30.24,ENE,61,5.0,12.0,77,0.00,,,0.42,,2013-02-09 02:01:00,
2013-02-08 20:11:00,35.0,28.0,30.22,ENE,65,10.0,14.0,76,0.00,,,0.42,,2013-02-09 02:11:00,
2013-02-08 20:21:00,35.0,28.0,30.22,ENE,65,10.0,14.0,76,0.00,,,0.42,,2013-02-09 02:21:00,
2013-02-08 20:32:00,35.0,28.0,30.22,ENE,65,10.0,14.0,76,0.00,,,0.42,,2013-02-09 02:32:00,
2013-02-08 20:42:00,35.0,28.0,30.22,ENE,65,10.0,14.0,76,0.00,,,0.42,,2013-02-09 02:42:00,
2013-02-08 20:52:00,34.0,28.0,30.24,NE,35,3.0,17.0,80,0.00,,,0.42,,2013-02-09 02:52:00,
2013-02-08 21:02:00,34.0,28.0,30.24,ENE,61,3.0,15.0,78,0.00,,,0.42,,2013-02-09 03:02:00,
2013-02-08 21:11:00,34.0,28.0,30.24,ENE,61,3.0,15.0,78,0.00,,,0.42,,2013-02-09 03:11:00,
2013-02-08 21:21:00,34.0,28.0,30.26,ENE,68,8.0,15.0,80,0.00,,,0.42,,2013-02-09 03:21:00,
2013-02-08 21:32:00,33.0,27.0,30.25,NE,55,10.0,16.0,78,0.00,,,0.42,,2013-02-09 03:32:00,
2013-02-08 21:42:00,33.0,27.0,30.25,NE,55,10.0,16.0,78,0.00,,,0.42,,2013-02-09 03:42:00,
2013-02-08 21:52:00,33.0,27.0,30.27,East,89,11.0,16.0,79,0.00,,,0.42,,2013-02-09 03:52:00,
2013-02-08 22:02:00,33.0,27.0,30.27,East,89,11.0,16.0,79,0.00,,,0.42,,2013-02-09 04:02:00,
2013-02-08 22:12:00,33.0,27.0,30.28,NE,44,1.0,17.0,79,0.00,,,0.42,,2013-02-09 04:12:00,
2013-02-08 22:23:00,33.0,27.0,30.28,NE,44,1.0,17.0,79,0.00,,,0.42,,2013-02-09 04:23:00,
2013-02-08 22:32:00,33.0,27.0,30.28,NE,38,2.0,12.0,79,0.00,,,0.42,,2013-02-09 04:32:00,
2013-02-08 22:42:00,33.0,27.0,30.28,NE,38,2.0,12.0,79,0.00,,,0.42,,2013-02-09 04:42:00,
2013-02-08 22:52:00,33.0,27.0,30.28,ENE,71,8.0,12.0,79,0.00,,,0.42,,2013-02-09 04:52:00,
2013-02-08 23:02:00,33.0,28.0,30.28,East,89,4.0,15.0,80,0.00,,,0.42,,2013-02-09 05:02:00,
2013-02-08 23:12:00,33.0,28.0,30.28,East,89,4.0,15.0,80,0.00,,,0.42,,2013-02-09 05:12:00,
2013-02-08 23:22:00,33.0,28.0,30.28,East,89,4.0,15.0,80,0.00,,,0.42,,2013-02-09 05:22:00,
2013-02-08 23:32:00,33.0,28.0,30.27,ENE,65,2.0,8.0,81,0.00,,,0.42,,2013-02-09 05:32:00,
2013-02-08 23:42:00,33.0,28.0,30.27,ENE,65,2.0,8.0,81,0.00,,,0.42,,2013-02-09 05:42:00,
2013-02-08 23:52:00,33.0,28.0,30.26,ENE,64,8.0,8.0,80,0.00,,,0.42,,2013-02-09 05:52:00,